Terminal Aerodrome Forecast
Issued by NWS

Home | Current Version | Previous Version | Text Only | Print | Product List | Glossary Off
Versions: 1 2 3 4 5 6 7 8 9 10 11 12 13 14 15 16 17 18 19 20 21 22 23 24 25 26 27 28 29 30 31 32 33 34 35 36 37

000
FTUS43 KLOT 152100 AAB
TAFDPA
TAF AMD
KDPA 152113Z 1521/1618 24007KT P6SM VCSH SCT012 OVC028
      TEMPO 1521/1522 4SM -SHRADZ SCT010 OVC018
     FM152200 36008KT P6SM SCT012 BKN020 OVC030
     FM160200 34004KT P6SM SKC
      TEMPO 1608/1612 5SM BR BCFG=

USA.gov is the U.S. government's official web portal to all federal, state and local government web resources and services.